sensor_id;sensor_type;location;lat;lon;timestamp;P1;durP1;ratioP1;P2;durP2;ratioP2
15889;SDS011;8043;49.388;12.128;2023-03-01T00:00:40;7.23;;;4.00;;
15889;SDS011;8043;49.388;12.128;2023-03-01T00:05:44;8.70;;;4.83;;
15889;SDS011;8043;49.388;12.128;2023-03-01T00:10:47;8.23;;;4.47;;
15889;SDS011;8043;49.388;12.128;2023-03-01T00:15:50;8.87;;;4.33;;
15889;SDS011;8043;49.388;12.128;2023-03-01T00:20:52;5.83;;;4.03;;
15889;SDS011;8043;49.388;12.128;2023-03-01T00:25:55;6.57;;;3.33;;
15889;SDS011;8043;49.388;12.128;2023-03-01T00:31:10;7.67;;;3.83;;
15889;SDS011;8043;49.388;12.128;2023-03-01T00:36:08;8.07;;;3.10;;
15889;SDS011;8043;49.388;12.128;2023-03-01T00:41:12;8.20;;;3.70;;
15889;SDS011;8043;49.388;12.128;2023-03-01T00:46:16;7.27;;;3.83;;
15889;SDS011;8043;49.388;12.128;2023-03-01T00:51:24;7.13;;;4.30;;
15889;SDS011;8043;49.388;12.128;2023-03-01T00:56:28;8.23;;;3.33;;
15889;SDS011;8043;49.388;12.128;2023-03-01T01:01:32;8.30;;;3.83;;
15889;SDS011;8043;49.388;12.128;2023-03-01T01:06:36;9.20;;;3.63;;
15889;SDS011;8043;49.388;12.128;2023-03-01T01:11:46;7.43;;;2.67;;
15889;SDS011;8043;49.388;12.128;2023-03-01T01:16:50;6.20;;;3.60;;
15889;SDS011;8043;49.388;12.128;2023-03-01T01:21:53;6.43;;;3.60;;
15889;SDS011;8043;49.388;12.128;2023-03-01T01:26:55;9.73;;;3.80;;
15889;SDS011;8043;49.388;12.128;2023-03-01T01:31:58;6.97;;;3.87;;
15889;SDS011;8043;49.388;12.128;2023-03-01T01:37:00;3.37;;;2.63;;
15889;SDS011;8043;49.388;12.128;2023-03-01T01:42:03;6.90;;;3.33;;
15889;SDS011;8043;49.388;12.128;2023-03-01T01:47:06;7.90;;;3.63;;
15889;SDS011;8043;49.388;12.128;2023-03-01T01:52:16;6.20;;;4.23;;
15889;SDS011;8043;49.388;12.128;2023-03-01T01:57:27;6.93;;;2.93;;
15889;SDS011;8043;49.388;12.128;2023-03-01T02:02:31;8.33;;;4.00;;
15889;SDS011;8043;49.388;12.128;2023-03-01T02:07:33;5.80;;;3.90;;
15889;SDS011;8043;49.388;12.128;2023-03-01T02:12:35;9.80;;;4.07;;
15889;SDS011;8043;49.388;12.128;2023-03-01T02:17:38;5.97;;;4.03;;
15889;SDS011;8043;49.388;12.128;2023-03-01T02:22:40;5.20;;;3.17;;
15889;SDS011;8043;49.388;12.128;2023-03-01T02:32:58;6.83;;;3.63;;
15889;SDS011;8043;49.388;12.128;2023-03-01T02:38:05;5.83;;;3.30;;
15889;SDS011;8043;49.388;12.128;2023-03-01T02:43:08;6.50;;;4.30;;
15889;SDS011;8043;49.388;12.128;2023-03-01T02:48:11;6.13;;;4.13;;
15889;SDS011;8043;49.388;12.128;2023-03-01T02:53:21;6.37;;;4.63;;
15889;SDS011;8043;49.388;12.128;2023-03-01T02:58:22;7.23;;;3.37;;
15889;SDS011;8043;49.388;12.128;2023-03-01T03:03:24;9.03;;;4.83;;
15889;SDS011;8043;49.388;12.128;2023-03-01T03:08:26;9.43;;;5.07;;
15889;SDS011;8043;49.388;12.128;2023-03-01T03:13:28;9.33;;;3.97;;
15889;SDS011;8043;49.388;12.128;2023-03-01T03:18:31;5.97;;;3.47;;
15889;SDS011;8043;49.388;12.128;2023-03-01T03:23:33;4.77;;;2.93;;
15889;SDS011;8043;49.388;12.128;2023-03-01T03:28:36;10.10;;;4.80;;
15889;SDS011;8043;49.388;12.128;2023-03-01T03:33:39;4.97;;;3.50;;
15889;SDS011;8043;49.388;12.128;2023-03-01T03:38:41;6.03;;;3.67;;
15889;SDS011;8043;49.388;12.128;2023-03-01T03:43:44;5.90;;;4.00;;
15889;SDS011;8043;49.388;12.128;2023-03-01T03:48:46;5.40;;;4.13;;
15889;SDS011;8043;49.388;12.128;2023-03-01T03:53:49;7.13;;;5.17;;
15889;SDS011;8043;49.388;12.128;2023-03-01T03:58:52;6.90;;;4.33;;
15889;SDS011;8043;49.388;12.128;2023-03-01T04:03:54;12.70;;;5.87;;
15889;SDS011;8043;49.388;12.128;2023-03-01T04:08:57;6.50;;;4.10;;
15889;SDS011;8043;49.388;12.128;2023-03-01T04:14:00;6.90;;;4.53;;
15889;SDS011;8043;49.388;12.128;2023-03-01T04:19:04;7.17;;;3.97;;
15889;SDS011;8043;49.388;12.128;2023-03-01T04:24:07;6.47;;;3.80;;
15889;SDS011;8043;49.388;12.128;2023-03-01T04:29:10;5.47;;;3.90;;
15889;SDS011;8043;49.388;12.128;2023-03-01T04:34:12;8.50;;;4.27;;
15889;SDS011;8043;49.388;12.128;2023-03-01T04:39:14;12.90;;;4.37;;
15889;SDS011;8043;49.388;12.128;2023-03-01T04:44:16;8.83;;;5.00;;
15889;SDS011;8043;49.388;12.128;2023-03-01T04:49:19;8.00;;;4.47;;
15889;SDS011;8043;49.388;12.128;2023-03-01T04:54:22;7.20;;;4.00;;
15889;SDS011;8043;49.388;12.128;2023-03-01T04:59:24;6.43;;;3.80;;
15889;SDS011;8043;49.388;12.128;2023-03-01T05:04:27;10.37;;;3.83;;
15889;SDS011;8043;49.388;12.128;2023-03-01T05:09:29;8.87;;;3.83;;
15889;SDS011;8043;49.388;12.128;2023-03-01T05:14:31;9.77;;;6.80;;
15889;SDS011;8043;49.388;12.128;2023-03-01T05:19:33;7.43;;;4.67;;
15889;SDS011;8043;49.388;12.128;2023-03-01T05:24:36;7.80;;;5.07;;
15889;SDS011;8043;49.388;12.128;2023-03-01T05:29:39;6.47;;;3.57;;
15889;SDS011;8043;49.388;12.128;2023-03-01T05:34:41;6.53;;;4.90;;
15889;SDS011;8043;49.388;12.128;2023-03-01T05:39:44;8.03;;;4.03;;
15889;SDS011;8043;49.388;12.128;2023-03-01T05:44:46;12.50;;;3.60;;
15889;SDS011;8043;49.388;12.128;2023-03-01T05:49:49;4.80;;;3.33;;
15889;SDS011;8043;49.388;12.128;2023-03-01T05:54:51;13.20;;;4.27;;
15889;SDS011;8043;49.388;12.128;2023-03-01T05:59:53;9.33;;;4.63;;
15889;SDS011;8043;49.388;12.128;2023-03-01T06:04:55;6.60;;;3.73;;
15889;SDS011;8043;49.388;12.128;2023-03-01T06:09:57;7.17;;;4.83;;
15889;SDS011;8043;49.388;12.128;2023-03-01T06:15:00;7.43;;;4.57;;
15889;SDS011;8043;49.388;12.128;2023-03-01T06:20:08;8.40;;;5.40;;
15889;SDS011;8043;49.388;12.128;2023-03-01T06:25:08;9.10;;;4.27;;
15889;SDS011;8043;49.388;12.128;2023-03-01T06:30:11;8.70;;;4.87;;
15889;SDS011;8043;49.388;12.128;2023-03-01T06:35:15;5.80;;;3.70;;
15889;SDS011;8043;49.388;12.128;2023-03-01T06:40:18;5.63;;;3.87;;
15889;SDS011;8043;49.388;12.128;2023-03-01T06:45:21;9.60;;;4.03;;
15889;SDS011;8043;49.388;12.128;2023-03-01T06:50:25;10.47;;;5.27;;
15889;SDS011;8043;49.388;12.128;2023-03-01T06:55:27;7.40;;;3.77;;
15889;SDS011;8043;49.388;12.128;2023-03-01T07:00:29;16.00;;;5.70;;
15889;SDS011;8043;49.388;12.128;2023-03-01T07:05:32;7.93;;;4.90;;
15889;SDS011;8043;49.388;12.128;2023-03-01T07:10:35;13.77;;;5.40;;
15889;SDS011;8043;49.388;12.128;2023-03-01T07:15:37;9.70;;;5.37;;
15889;SDS011;8043;49.388;12.128;2023-03-01T07:20:41;7.37;;;5.23;;
15889;SDS011;8043;49.388;12.128;2023-03-01T07:25:43;8.10;;;5.17;;
15889;SDS011;8043;49.388;12.128;2023-03-01T07:30:45;12.80;;;5.83;;
15889;SDS011;8043;49.388;12.128;2023-03-01T07:35:48;5.90;;;4.30;;
15889;SDS011;8043;49.388;12.128;2023-03-01T07:40:50;9.00;;;4.23;;
15889;SDS011;8043;49.388;12.128;2023-03-01T07:45:52;10.07;;;4.97;;
15889;SDS011;8043;49.388;12.128;2023-03-01T07:50:54;9.83;;;5.03;;
15889;SDS011;8043;49.388;12.128;2023-03-01T07:56:05;11.03;;;5.93;;
15889;SDS011;8043;49.388;12.128;2023-03-01T08:01:09;11.40;;;5.47;;
15889;SDS011;8043;49.388;12.128;2023-03-01T08:06:14;14.40;;;6.30;;
15889;SDS011;8043;49.388;12.128;2023-03-01T08:11:17;15.43;;;6.97;;
15889;SDS011;8043;49.388;12.128;2023-03-01T08:16:19;15.57;;;6.43;;
15889;SDS011;8043;49.388;12.128;2023-03-01T08:21:22;12.50;;;5.47;;
15889;SDS011;8043;49.388;12.128;2023-03-01T08:26:24;15.90;;;7.13;;
15889;SDS011;8043;49.388;12.128;2023-03-01T08:31:28;14.30;;;7.87;;
15889;SDS011;8043;49.388;12.128;2023-03-01T08:36:33;16.03;;;6.27;;
15889;SDS011;8043;49.388;12.128;2023-03-01T08:41:40;13.30;;;7.67;;
15889;SDS011;8043;49.388;12.128;2023-03-01T08:46:43;17.83;;;7.80;;
15889;SDS011;8043;49.388;12.128;2023-03-01T08:51:47;16.30;;;5.93;;
15889;SDS011;8043;49.388;12.128;2023-03-01T08:56:49;16.33;;;6.23;;
15889;SDS011;8043;49.388;12.128;2023-03-01T09:01:51;11.17;;;5.20;;
15889;SDS011;8043;49.388;12.128;2023-03-01T09:06:54;18.97;;;7.27;;
15889;SDS011;8043;49.388;12.128;2023-03-01T09:11:56;15.50;;;6.60;;
15889;SDS011;8043;49.388;12.128;2023-03-01T09:16:58;11.40;;;5.93;;
15889;SDS011;8043;49.388;12.128;2023-03-01T09:22:02;10.87;;;5.50;;
15889;SDS011;8043;49.388;12.128;2023-03-01T09:27:05;19.67;;;7.73;;
15889;SDS011;8043;49.388;12.128;2023-03-01T09:32:09;14.20;;;6.67;;
15889;SDS011;8043;49.388;12.128;2023-03-01T09:37:11;14.45;;;6.70;;
15889;SDS011;8043;49.388;12.128;2023-03-01T09:42:15;8.45;;;4.78;;
15889;SDS011;8043;49.388;12.128;2023-03-01T09:47:18;12.47;;;5.87;;
15889;SDS011;8043;49.388;12.128;2023-03-01T09:57:38;12.47;;;5.80;;
15889;SDS011;8043;49.388;12.128;2023-03-01T10:02:52;11.80;;;5.97;;
15889;SDS011;8043;49.388;12.128;2023-03-01T10:08:06;12.23;;;6.67;;
15889;SDS011;8043;49.388;12.128;2023-03-01T10:13:15;14.20;;;6.67;;
15889;SDS011;8043;49.388;12.128;2023-03-01T10:18:26;15.20;;;5.63;;
15889;SDS011;8043;49.388;12.128;2023-03-01T10:23:28;14.97;;;6.03;;
15889;SDS011;8043;49.388;12.128;2023-03-01T10:33:54;15.07;;;5.57;;
15889;SDS011;8043;49.388;12.128;2023-03-01T10:38:59;14.50;;;6.10;;
15889;SDS011;8043;49.388;12.128;2023-03-01T10:44:01;10.60;;;4.70;;
15889;SDS011;8043;49.388;12.128;2023-03-01T10:49:16;13.03;;;5.93;;
15889;SDS011;8043;49.388;12.128;2023-03-01T10:54:26;10.37;;;5.43;;
15889;SDS011;8043;49.388;12.128;2023-03-01T10:59:35;10.77;;;5.33;;
15889;SDS011;8043;49.388;12.128;2023-03-01T11:04:38;14.38;;;5.12;;
15889;SDS011;8043;49.388;12.128;2023-03-01T11:09:58;12.47;;;6.97;;
15889;SDS011;8043;49.388;12.128;2023-03-01T11:15:00;14.60;;;6.57;;
15889;SDS011;8043;49.388;12.128;2023-03-01T11:20:06;13.17;;;5.50;;
15889;SDS011;8043;49.388;12.128;2023-03-01T11:25:17;15.20;;;7.80;;
15889;SDS011;8043;49.388;12.128;2023-03-01T11:30:26;14.80;;;6.70;;
15889;SDS011;8043;49.388;12.128;2023-03-01T11:35:32;11.10;;;6.27;;
15889;SDS011;8043;49.388;12.128;2023-03-01T11:46:08;14.57;;;8.33;;
15889;SDS011;8043;49.388;12.128;2023-03-01T11:51:25;16.37;;;7.47;;
15889;SDS011;8043;49.388;12.128;2023-03-01T11:56:38;15.23;;;7.87;;
15889;SDS011;8043;49.388;12.128;2023-03-01T12:01:49;16.67;;;7.33;;
15889;SDS011;8043;49.388;12.128;2023-03-01T12:06:59;14.43;;;7.23;;
15889;SDS011;8043;49.388;12.128;2023-03-01T12:12:06;18.30;;;9.03;;
15889;SDS011;8043;49.388;12.128;2023-03-01T12:38:49;21.10;;;8.97;;
15889;SDS011;8043;49.388;12.128;2023-03-01T12:54:26;16.97;;;8.87;;
15889;SDS011;8043;49.388;12.128;2023-03-01T12:59:44;18.47;;;9.93;;
15889;SDS011;8043;49.388;12.128;2023-03-01T13:04:57;18.17;;;9.63;;
15889;SDS011;8043;49.388;12.128;2023-03-01T13:10:15;16.90;;;9.47;;
15889;SDS011;8043;49.388;12.128;2023-03-01T13:31:11;18.30;;;8.77;;
15889;SDS011;8043;49.388;12.128;2023-03-01T13:57:43;17.93;;;8.47;;
15889;SDS011;8043;49.388;12.128;2023-03-01T14:02:58;17.67;;;9.33;;
15889;SDS011;8043;49.388;12.128;2023-03-01T14:07:52;16.33;;;9.10;;
15889;SDS011;8043;49.388;12.128;2023-03-01T14:12:55;17.77;;;8.77;;
15889;SDS011;8043;49.388;12.128;2023-03-01T14:18:24;21.03;;;9.63;;
15889;SDS011;8043;49.388;12.128;2023-03-01T14:23:30;18.10;;;10.17;;
15889;SDS011;8043;49.388;12.128;2023-03-01T14:28:34;20.40;;;9.37;;
15889;SDS011;8043;49.388;12.128;2023-03-01T14:33:39;21.67;;;9.93;;
15889;SDS011;8043;49.388;12.128;2023-03-01T14:38:43;16.70;;;9.40;;
15889;SDS011;8043;49.388;12.128;2023-03-01T14:43:53;18.73;;;9.23;;
15889;SDS011;8043;49.388;12.128;2023-03-01T14:49:06;16.17;;;9.03;;
15889;SDS011;8043;49.388;12.128;2023-03-01T14:54:20;23.80;;;9.53;;
15889;SDS011;8043;49.388;12.128;2023-03-01T14:59:22;19.17;;;9.67;;
15889;SDS011;8043;49.388;12.128;2023-03-01T15:04:25;22.77;;;9.93;;
15889;SDS011;8043;49.388;12.128;2023-03-01T15:09:28;16.87;;;8.30;;
15889;SDS011;8043;49.388;12.128;2023-03-01T15:14:43;18.27;;;9.90;;
15889;SDS011;8043;49.388;12.128;2023-03-01T15:19:50;21.47;;;8.50;;
15889;SDS011;8043;49.388;12.128;2023-03-01T15:24:53;20.80;;;10.23;;
15889;SDS011;8043;49.388;12.128;2023-03-01T15:30:01;19.50;;;9.90;;
15889;SDS011;8043;49.388;12.128;2023-03-01T15:35:00;17.33;;;9.70;;
15889;SDS011;8043;49.388;12.128;2023-03-01T15:40:21;19.67;;;8.53;;
15889;SDS011;8043;49.388;12.128;2023-03-01T15:45:33;16.03;;;9.00;;
15889;SDS011;8043;49.388;12.128;2023-03-01T15:50:37;17.63;;;9.23;;
15889;SDS011;8043;49.388;12.128;2023-03-01T15:55:40;18.90;;;9.77;;
15889;SDS011;8043;49.388;12.128;2023-03-01T16:00:43;20.70;;;9.13;;
15889;SDS011;8043;49.388;12.128;2023-03-01T16:05:48;16.47;;;9.10;;
15889;SDS011;8043;49.388;12.128;2023-03-01T16:10:50;20.07;;;9.90;;
15889;SDS011;8043;49.388;12.128;2023-03-01T16:15:54;17.53;;;8.63;;
15889;SDS011;8043;49.388;12.128;2023-03-01T16:20:57;17.93;;;8.90;;
15889;SDS011;8043;49.388;12.128;2023-03-01T16:25:59;21.12;;;10.65;;
15889;SDS011;8043;49.388;12.128;2023-03-01T16:31:02;22.17;;;10.57;;
15889;SDS011;8043;49.388;12.128;2023-03-01T16:36:08;18.63;;;9.30;;
15889;SDS011;8043;49.388;12.128;2023-03-01T16:41:13;28.23;;;11.53;;
15889;SDS011;8043;49.388;12.128;2023-03-01T16:46:17;16.57;;;8.57;;
15889;SDS011;8043;49.388;12.128;2023-03-01T16:51:21;18.57;;;8.90;;
15889;SDS011;8043;49.388;12.128;2023-03-01T16:56:24;21.13;;;10.80;;
15889;SDS011;8043;49.388;12.128;2023-03-01T17:01:26;18.97;;;9.83;;
15889;SDS011;8043;49.388;12.128;2023-03-01T17:06:31;22.43;;;11.20;;
15889;SDS011;8043;49.388;12.128;2023-03-01T17:11:33;30.47;;;13.53;;
15889;SDS011;8043;49.388;12.128;2023-03-01T17:16:37;16.23;;;8.53;;
15889;SDS011;8043;49.388;12.128;2023-03-01T17:21:39;19.60;;;9.00;;
15889;SDS011;8043;49.388;12.128;2023-03-01T17:26:41;24.57;;;12.53;;
15889;SDS011;8043;49.388;12.128;2023-03-01T17:31:44;27.37;;;12.57;;
15889;SDS011;8043;49.388;12.128;2023-03-01T17:36:46;21.17;;;10.80;;
15889;SDS011;8043;49.388;12.128;2023-03-01T17:41:53;24.83;;;11.70;;
15889;SDS011;8043;49.388;12.128;2023-03-01T17:46:55;32.13;;;16.27;;
15889;SDS011;8043;49.388;12.128;2023-03-01T17:51:58;40.20;;;15.90;;
15889;SDS011;8043;49.388;12.128;2023-03-01T17:57:00;45.10;;;25.23;;
15889;SDS011;8043;49.388;12.128;2023-03-01T18:02:02;19.47;;;10.57;;
15889;SDS011;8043;49.388;12.128;2023-03-01T18:07:05;21.80;;;10.73;;
15889;SDS011;8043;49.388;12.128;2023-03-01T18:12:07;16.03;;;7.87;;
15889;SDS011;8043;49.388;12.128;2023-03-01T18:17:10;26.37;;;11.67;;
15889;SDS011;8043;49.388;12.128;2023-03-01T18:22:12;23.47;;;11.47;;
15889;SDS011;8043;49.388;12.128;2023-03-01T18:27:15;22.47;;;12.43;;
15889;SDS011;8043;49.388;12.128;2023-03-01T18:32:17;26.93;;;14.20;;
15889;SDS011;8043;49.388;12.128;2023-03-01T18:37:19;18.13;;;8.90;;
15889;SDS011;8043;49.388;12.128;2023-03-01T18:42:21;27.27;;;14.20;;
15889;SDS011;8043;49.388;12.128;2023-03-01T18:47:24;24.90;;;13.53;;
15889;SDS011;8043;49.388;12.128;2023-03-01T18:52:26;35.67;;;20.27;;
15889;SDS011;8043;49.388;12.128;2023-03-01T18:57:29;21.00;;;9.33;;
15889;SDS011;8043;49.388;12.128;2023-03-01T19:02:31;15.43;;;6.53;;
15889;SDS011;8043;49.388;12.128;2023-03-01T19:07:33;17.60;;;9.27;;
15889;SDS011;8043;49.388;12.128;2023-03-01T19:12:35;19.10;;;9.07;;
15889;SDS011;8043;49.388;12.128;2023-03-01T19:17:37;14.67;;;8.00;;
15889;SDS011;8043;49.388;12.128;2023-03-01T19:22:39;17.00;;;8.07;;
15889;SDS011;8043;49.388;12.128;2023-03-01T19:27:42;22.23;;;9.37;;
15889;SDS011;8043;49.388;12.128;2023-03-01T19:32:44;17.47;;;9.03;;
15889;SDS011;8043;49.388;12.128;2023-03-01T19:37:46;23.83;;;11.67;;
15889;SDS011;8043;49.388;12.128;2023-03-01T19:42:48;20.87;;;9.67;;
15889;SDS011;8043;49.388;12.128;2023-03-01T19:47:51;19.50;;;8.97;;
15889;SDS011;8043;49.388;12.128;2023-03-01T19:52:53;16.50;;;8.60;;
15889;SDS011;8043;49.388;12.128;2023-03-01T19:57:55;15.63;;;7.60;;
15889;SDS011;8043;49.388;12.128;2023-03-01T20:02:57;13.80;;;6.53;;
15889;SDS011;8043;49.388;12.128;2023-03-01T20:07:59;18.07;;;7.43;;
15889;SDS011;8043;49.388;12.128;2023-03-01T20:13:02;16.30;;;7.47;;
15889;SDS011;8043;49.388;12.128;2023-03-01T20:18:04;17.50;;;7.53;;
15889;SDS011;8043;49.388;12.128;2023-03-01T20:23:06;21.20;;;7.40;;
15889;SDS011;8043;49.388;12.128;2023-03-01T20:28:08;13.53;;;7.60;;
15889;SDS011;8043;49.388;12.128;2023-03-01T20:33:11;13.40;;;7.13;;
15889;SDS011;8043;49.388;12.128;2023-03-01T20:38:13;21.73;;;8.33;;
15889;SDS011;8043;49.388;12.128;2023-03-01T20:43:15;14.87;;;6.50;;
15889;SDS011;8043;49.388;12.128;2023-03-01T20:48:17;13.30;;;6.93;;
15889;SDS011;8043;49.388;12.128;2023-03-01T20:53:20;13.20;;;6.67;;
15889;SDS011;8043;49.388;12.128;2023-03-01T20:58:22;16.30;;;6.57;;
15889;SDS011;8043;49.388;12.128;2023-03-01T21:03:24;16.17;;;7.63;;
15889;SDS011;8043;49.388;12.128;2023-03-01T21:08:27;20.37;;;7.23;;
15889;SDS011;8043;49.388;12.128;2023-03-01T21:13:30;17.80;;;8.87;;
15889;SDS011;8043;49.388;12.128;2023-03-01T21:18:33;29.00;;;14.30;;
15889;SDS011;8043;49.388;12.128;2023-03-01T21:23:37;18.10;;;6.03;;
15889;SDS011;8043;49.388;12.128;2023-03-01T21:28:40;14.67;;;6.33;;
15889;SDS011;8043;49.388;12.128;2023-03-01T21:33:47;14.07;;;6.13;;
15889;SDS011;8043;49.388;12.128;2023-03-01T21:38:51;10.83;;;6.07;;
15889;SDS011;8043;49.388;12.128;2023-03-01T21:43:54;9.50;;;5.83;;
15889;SDS011;8043;49.388;12.128;2023-03-01T21:48:58;11.23;;;5.60;;
15889;SDS011;8043;49.388;12.128;2023-03-01T21:54:02;15.13;;;6.80;;
15889;SDS011;8043;49.388;12.128;2023-03-01T21:59:06;12.67;;;6.20;;
15889;SDS011;8043;49.388;12.128;2023-03-01T22:04:09;10.70;;;6.27;;
15889;SDS011;8043;49.388;12.128;2023-03-01T22:09:13;8.53;;;4.30;;
15889;SDS011;8043;49.388;12.128;2023-03-01T22:14:17;11.67;;;5.47;;
15889;SDS011;8043;49.388;12.128;2023-03-01T22:19:20;9.03;;;4.83;;
15889;SDS011;8043;49.388;12.128;2023-03-01T22:24:23;9.90;;;5.00;;
15889;SDS011;8043;49.388;12.128;2023-03-01T22:29:27;11.47;;;5.87;;
15889;SDS011;8043;49.388;12.128;2023-03-01T22:34:30;10.83;;;4.83;;
15889;SDS011;8043;49.388;12.128;2023-03-01T22:39:32;14.07;;;6.13;;
15889;SDS011;8043;49.388;12.128;2023-03-01T22:44:34;10.10;;;4.93;;
15889;SDS011;8043;49.388;12.128;2023-03-01T22:49:37;11.07;;;5.13;;
15889;SDS011;8043;49.388;12.128;2023-03-01T22:54:39;15.87;;;5.70;;
15889;SDS011;8043;49.388;12.128;2023-03-01T22:59:42;13.23;;;6.00;;
15889;SDS011;8043;49.388;12.128;2023-03-01T23:04:44;11.60;;;5.33;;
15889;SDS011;8043;49.388;12.128;2023-03-01T23:09:48;10.00;;;5.73;;
15889;SDS011;8043;49.388;12.128;2023-03-01T23:14:50;11.37;;;5.43;;
15889;SDS011;8043;49.388;12.128;2023-03-01T23:19:52;13.57;;;5.20;;
15889;SDS011;8043;49.388;12.128;2023-03-01T23:24:54;10.97;;;4.87;;
15889;SDS011;8043;49.388;12.128;2023-03-01T23:29:57;6.40;;;3.47;;
15889;SDS011;8043;49.388;12.128;2023-03-01T23:34:59;12.33;;;5.08;;
15889;SDS011;8043;49.388;12.128;2023-03-01T23:40:01;8.93;;;4.33;;
15889;SDS011;8043;49.388;12.128;2023-03-01T23:45:06;9.70;;;4.50;;
15889;SDS011;8043;49.388;12.128;2023-03-01T23:50:09;15.63;;;5.63;;
15889;SDS011;8043;49.388;12.128;2023-03-01T23:55:11;12.03;;;4.67;;
